Redwood Valley, California
Current Conditions -  °F | °C
As of 7:40 AM on Friday 24 Oct 2014 (Local Time) from KUKI Reporting Station
Moderate Fog Moderate Fog  
Wind Chill: 54°   Ceiling: 200
Heat Index: 54°   Visibility: 0.25mi
Dew Point: 53°   Wind: 0mph
Humidity: 97%   Direction: NA
Pressure: 29.95"   Gusts: NA
Location:  39.27°N, 123.21°W
Report Text: KUKI 241440Z AUTO 00000KT 1/4SM FG BKN002 OVC032 12/12 A2995 RMK AO2 T01220117
Loading
Personal Weather Stations






























Interactive Weather Map
Tropical Storm Tracking
New forecast layout! Learn more

10-Day Weather Forecast

Advertisements
Track Severe Weather on mobile